sensor_id;sensor_type;location;lat;lon;timestamp;P1;durP1;ratioP1;P2;durP2;ratioP2
19396;SDS011;9834;48.076;11.878;2023-08-20T00:02:32;2.50;;;2.10;;
19396;SDS011;9834;48.076;11.878;2023-08-20T00:05:02;2.83;;;2.63;;
19396;SDS011;9834;48.076;11.878;2023-08-20T00:07:33;3.10;;;2.57;;
19396;SDS011;9834;48.076;11.878;2023-08-20T00:10:05;3.97;;;2.65;;
19396;SDS011;9834;48.076;11.878;2023-08-20T00:12:37;11.25;;;3.65;;
19396;SDS011;9834;48.076;11.878;2023-08-20T00:15:10;3.10;;;2.90;;
19396;SDS011;9834;48.076;11.878;2023-08-20T00:17:40;2.53;;;2.33;;
19396;SDS011;9834;48.076;11.878;2023-08-20T00:20:13;3.17;;;2.87;;
19396;SDS011;9834;48.076;11.878;2023-08-20T00:22:41;3.93;;;3.20;;
19396;SDS011;9834;48.076;11.878;2023-08-20T00:25:15;3.53;;;3.23;;
19396;SDS011;9834;48.076;11.878;2023-08-20T00:27:43;5.97;;;3.20;;
19396;SDS011;9834;48.076;11.878;2023-08-20T00:30:19;3.73;;;3.33;;
19396;SDS011;9834;48.076;11.878;2023-08-20T00:32:46;3.00;;;2.70;;
19396;SDS011;9834;48.076;11.878;2023-08-20T00:35:17;3.57;;;3.03;;
19396;SDS011;9834;48.076;11.878;2023-08-20T00:37:47;4.60;;;2.80;;
19396;SDS011;9834;48.076;11.878;2023-08-20T00:40:18;3.47;;;2.83;;
19396;SDS011;9834;48.076;11.878;2023-08-20T00:42:51;4.27;;;3.00;;
19396;SDS011;9834;48.076;11.878;2023-08-20T00:45:21;3.40;;;3.10;;
19396;SDS011;9834;48.076;11.878;2023-08-20T00:47:53;3.77;;;3.47;;
19396;SDS011;9834;48.076;11.878;2023-08-20T00:50:33;5.30;;;3.20;;
19396;SDS011;9834;48.076;11.878;2023-08-20T00:53:04;4.00;;;3.43;;
19396;SDS011;9834;48.076;11.878;2023-08-20T00:55:39;3.90;;;3.50;;
19396;SDS011;9834;48.076;11.878;2023-08-20T00:58:09;5.63;;;3.00;;
19396;SDS011;9834;48.076;11.878;2023-08-20T01:00:48;3.67;;;3.23;;
19396;SDS011;9834;48.076;11.878;2023-08-20T01:03:24;3.27;;;2.90;;
19396;SDS011;9834;48.076;11.878;2023-08-20T01:05:58;2.93;;;2.63;;
19396;SDS011;9834;48.076;11.878;2023-08-20T01:08:38;3.33;;;2.83;;
19396;SDS011;9834;48.076;11.878;2023-08-20T01:11:17;2.80;;;2.60;;
19396;SDS011;9834;48.076;11.878;2023-08-20T01:13:55;6.43;;;3.47;;
19396;SDS011;9834;48.076;11.878;2023-08-20T01:16:24;5.87;;;3.80;;
19396;SDS011;9834;48.076;11.878;2023-08-20T01:19:01;3.17;;;2.87;;
19396;SDS011;9834;48.076;11.878;2023-08-20T01:21:30;4.63;;;3.47;;
19396;SDS011;9834;48.076;11.878;2023-08-20T01:24:10;6.63;;;3.40;;
19396;SDS011;9834;48.076;11.878;2023-08-20T01:29:44;3.70;;;3.40;;
19396;SDS011;9834;48.076;11.878;2023-08-20T01:32:12;5.57;;;3.70;;
19396;SDS011;9834;48.076;11.878;2023-08-20T01:34:44;4.00;;;3.33;;
19396;SDS011;9834;48.076;11.878;2023-08-20T01:37:16;7.93;;;2.93;;
19396;SDS011;9834;48.076;11.878;2023-08-20T01:39:47;3.30;;;2.67;;
19396;SDS011;9834;48.076;11.878;2023-08-20T01:42:16;6.17;;;3.47;;
19396;SDS011;9834;48.076;11.878;2023-08-20T01:45:06;3.23;;;2.93;;
19396;SDS011;9834;48.076;11.878;2023-08-20T01:47:34;5.43;;;3.93;;
19396;SDS011;9834;48.076;11.878;2023-08-20T01:50:01;3.50;;;3.20;;
19396;SDS011;9834;48.076;11.878;2023-08-20T01:52:36;4.37;;;3.83;;
19396;SDS011;9834;48.076;11.878;2023-08-20T01:55:08;3.10;;;2.80;;
19396;SDS011;9834;48.076;11.878;2023-08-20T01:57:35;3.97;;;3.57;;
19396;SDS011;9834;48.076;11.878;2023-08-20T02:00:21;4.40;;;3.37;;
19396;SDS011;9834;48.076;11.878;2023-08-20T02:02:48;5.60;;;4.47;;
19396;SDS011;9834;48.076;11.878;2023-08-20T02:05:18;8.87;;;4.07;;
19396;SDS011;9834;48.076;11.878;2023-08-20T02:07:44;4.90;;;4.27;;
19396;SDS011;9834;48.076;11.878;2023-08-20T02:10:24;3.83;;;3.43;;
19396;SDS011;9834;48.076;11.878;2023-08-20T02:12:51;4.40;;;4.00;;
19396;SDS011;9834;48.076;11.878;2023-08-20T02:15:20;8.80;;;4.80;;
19396;SDS011;9834;48.076;11.878;2023-08-20T02:17:50;5.07;;;4.57;;
19396;SDS011;9834;48.076;11.878;2023-08-20T02:20:26;3.80;;;3.50;;
19396;SDS011;9834;48.076;11.878;2023-08-20T02:22:56;4.57;;;3.73;;
19396;SDS011;9834;48.076;11.878;2023-08-20T02:25:23;4.60;;;4.10;;
19396;SDS011;9834;48.076;11.878;2023-08-20T02:27:53;5.47;;;4.03;;
19396;SDS011;9834;48.076;11.878;2023-08-20T02:30:29;9.27;;;4.30;;
19396;SDS011;9834;48.076;11.878;2023-08-20T02:32:58;5.87;;;4.17;;
19396;SDS011;9834;48.076;11.878;2023-08-20T02:35:25;4.83;;;4.20;;
19396;SDS011;9834;48.076;11.878;2023-08-20T02:37:55;8.00;;;4.83;;
19396;SDS011;9834;48.076;11.878;2023-08-20T02:40:27;4.83;;;4.27;;
19396;SDS011;9834;48.076;11.878;2023-08-20T02:42:54;6.03;;;3.23;;
19396;SDS011;9834;48.076;11.878;2023-08-20T02:45:21;4.23;;;3.83;;
19396;SDS011;9834;48.076;11.878;2023-08-20T02:47:52;4.87;;;4.43;;
19396;SDS011;9834;48.076;11.878;2023-08-20T02:50:22;4.93;;;4.40;;
19396;SDS011;9834;48.076;11.878;2023-08-20T02:52:51;4.50;;;3.87;;
19396;SDS011;9834;48.076;11.878;2023-08-20T02:55:21;7.97;;;5.20;;
19396;SDS011;9834;48.076;11.878;2023-08-20T02:58:03;7.33;;;4.33;;
19396;SDS011;9834;48.076;11.878;2023-08-20T03:00:37;5.10;;;4.60;;
19396;SDS011;9834;48.076;11.878;2023-08-20T03:03:11;4.50;;;3.93;;
19396;SDS011;9834;48.076;11.878;2023-08-20T03:05:44;4.43;;;4.03;;
19396;SDS011;9834;48.076;11.878;2023-08-20T03:08:16;5.23;;;4.30;;
19396;SDS011;9834;48.076;11.878;2023-08-20T03:10:48;6.13;;;4.43;;
19396;SDS011;9834;48.076;11.878;2023-08-20T03:13:18;5.33;;;4.83;;
19396;SDS011;9834;48.076;11.878;2023-08-20T03:15:47;5.60;;;4.97;;
19396;SDS011;9834;48.076;11.878;2023-08-20T03:18:18;4.67;;;4.27;;
19396;SDS011;9834;48.076;11.878;2023-08-20T03:20:45;5.93;;;4.60;;
19396;SDS011;9834;48.076;11.878;2023-08-20T03:23:15;8.37;;;4.83;;
19396;SDS011;9834;48.076;11.878;2023-08-20T03:25:42;9.13;;;4.90;;
19396;SDS011;9834;48.076;11.878;2023-08-20T03:28:15;7.13;;;3.97;;
19396;SDS011;9834;48.076;11.878;2023-08-20T03:30:43;5.67;;;4.30;;
19396;SDS011;9834;48.076;11.878;2023-08-20T03:33:13;6.70;;;4.40;;
19396;SDS011;9834;48.076;11.878;2023-08-20T03:35:43;3.87;;;3.57;;
19396;SDS011;9834;48.076;11.878;2023-08-20T03:38:13;5.73;;;4.00;;
19396;SDS011;9834;48.076;11.878;2023-08-20T03:40:40;6.17;;;4.40;;
19396;SDS011;9834;48.076;11.878;2023-08-20T03:43:07;5.30;;;3.93;;
19396;SDS011;9834;48.076;11.878;2023-08-20T03:45:44;4.47;;;4.07;;
19396;SDS011;9834;48.076;11.878;2023-08-20T03:48:21;7.83;;;4.73;;
19396;SDS011;9834;48.076;11.878;2023-08-20T03:50:52;3.30;;;2.77;;
19396;SDS011;9834;48.076;11.878;2023-08-20T03:53:19;5.70;;;3.77;;
19396;SDS011;9834;48.076;11.878;2023-08-20T03:55:50;5.27;;;4.30;;
19396;SDS011;9834;48.076;11.878;2023-08-20T03:58:20;6.57;;;4.33;;
19396;SDS011;9834;48.076;11.878;2023-08-20T04:01:01;6.13;;;3.93;;
19396;SDS011;9834;48.076;11.878;2023-08-20T04:03:51;4.17;;;3.77;;
19396;SDS011;9834;48.076;11.878;2023-08-20T04:06:33;4.73;;;3.47;;
19396;SDS011;9834;48.076;11.878;2023-08-20T04:09:10;4.60;;;3.93;;
19396;SDS011;9834;48.076;11.878;2023-08-20T04:11:41;5.17;;;3.97;;
19396;SDS011;9834;48.076;11.878;2023-08-20T04:14:23;8.87;;;4.03;;
19396;SDS011;9834;48.076;11.878;2023-08-20T04:16:56;3.53;;;3.20;;
19396;SDS011;9834;48.076;11.878;2023-08-20T04:19:23;4.87;;;4.30;;
19396;SDS011;9834;48.076;11.878;2023-08-20T04:22:01;4.30;;;3.67;;
19396;SDS011;9834;48.076;11.878;2023-08-20T04:24:30;19.20;;;3.37;;
19396;SDS011;9834;48.076;11.878;2023-08-20T04:27:08;4.60;;;3.83;;
19396;SDS011;9834;48.076;11.878;2023-08-20T04:29:44;3.80;;;2.93;;
19396;SDS011;9834;48.076;11.878;2023-08-20T04:32:11;3.80;;;3.43;;
19396;SDS011;9834;48.076;11.878;2023-08-20T04:34:38;3.93;;;3.43;;
19396;SDS011;9834;48.076;11.878;2023-08-20T04:37:08;3.90;;;3.00;;
19396;SDS011;9834;48.076;11.878;2023-08-20T04:39:38;3.30;;;3.03;;
19396;SDS011;9834;48.076;11.878;2023-08-20T04:42:08;3.10;;;2.80;;
19396;SDS011;9834;48.076;11.878;2023-08-20T04:44:37;3.47;;;3.17;;
19396;SDS011;9834;48.076;11.878;2023-08-20T04:47:04;3.77;;;3.40;;
19396;SDS011;9834;48.076;11.878;2023-08-20T04:49:37;6.50;;;3.10;;
19396;SDS011;9834;48.076;11.878;2023-08-20T04:52:11;3.17;;;2.27;;
19396;SDS011;9834;48.076;11.878;2023-08-20T04:54:38;3.43;;;3.13;;
19396;SDS011;9834;48.076;11.878;2023-08-20T04:57:05;3.87;;;3.10;;
19396;SDS011;9834;48.076;11.878;2023-08-20T04:59:35;4.10;;;3.17;;
19396;SDS011;9834;48.076;11.878;2023-08-20T05:02:02;3.20;;;2.80;;
19396;SDS011;9834;48.076;11.878;2023-08-20T05:04:29;7.43;;;3.70;;
19396;SDS011;9834;48.076;11.878;2023-08-20T05:06:59;3.87;;;3.23;;
19396;SDS011;9834;48.076;11.878;2023-08-20T05:09:38;3.23;;;2.90;;
19396;SDS011;9834;48.076;11.878;2023-08-20T05:12:09;2.57;;;2.37;;
19396;SDS011;9834;48.076;11.878;2023-08-20T05:14:36;5.40;;;2.90;;
19396;SDS011;9834;48.076;11.878;2023-08-20T05:17:10;5.03;;;2.93;;
19396;SDS011;9834;48.076;11.878;2023-08-20T05:19:46;2.77;;;2.47;;
19396;SDS011;9834;48.076;11.878;2023-08-20T05:22:13;3.17;;;2.53;;
19396;SDS011;9834;48.076;11.878;2023-08-20T05:24:41;5.17;;;2.43;;
19396;SDS011;9834;48.076;11.878;2023-08-20T05:27:12;3.40;;;3.03;;
19396;SDS011;9834;48.076;11.878;2023-08-20T05:29:41;2.80;;;2.50;;
19396;SDS011;9834;48.076;11.878;2023-08-20T05:32:13;7.70;;;3.77;;
19396;SDS011;9834;48.076;11.878;2023-08-20T05:34:41;2.53;;;2.07;;
19396;SDS011;9834;48.076;11.878;2023-08-20T05:37:11;5.53;;;3.33;;
19396;SDS011;9834;48.076;11.878;2023-08-20T05:39:40;3.00;;;2.70;;
19396;SDS011;9834;48.076;11.878;2023-08-20T05:42:09;3.67;;;2.63;;
19396;SDS011;9834;48.076;11.878;2023-08-20T05:44:39;3.33;;;3.03;;
19396;SDS011;9834;48.076;11.878;2023-08-20T05:47:07;2.27;;;2.13;;
19396;SDS011;9834;48.076;11.878;2023-08-20T05:49:34;3.33;;;3.00;;
19396;SDS011;9834;48.076;11.878;2023-08-20T05:52:02;3.87;;;3.57;;
19396;SDS011;9834;48.076;11.878;2023-08-20T05:54:29;5.27;;;2.87;;
19396;SDS011;9834;48.076;11.878;2023-08-20T05:56:58;2.70;;;2.50;;
19396;SDS011;9834;48.076;11.878;2023-08-20T05:59:27;7.13;;;2.93;;
19396;SDS011;9834;48.076;11.878;2023-08-20T06:02:01;4.40;;;2.87;;
19396;SDS011;9834;48.076;11.878;2023-08-20T06:04:29;7.40;;;2.83;;
19396;SDS011;9834;48.076;11.878;2023-08-20T06:06:59;3.80;;;3.03;;
19396;SDS011;9834;48.076;11.878;2023-08-20T06:09:29;4.37;;;3.87;;
19396;SDS011;9834;48.076;11.878;2023-08-20T06:12:02;8.80;;;3.27;;
19396;SDS011;9834;48.076;11.878;2023-08-20T06:14:33;5.82;;;3.25;;
19396;SDS011;9834;48.076;11.878;2023-08-20T06:17:00;4.90;;;3.00;;
19396;SDS011;9834;48.076;11.878;2023-08-20T06:19:33;3.43;;;3.13;;
19396;SDS011;9834;48.076;11.878;2023-08-20T06:22:11;3.60;;;3.30;;
19396;SDS011;9834;48.076;11.878;2023-08-20T06:24:38;9.63;;;3.10;;
19396;SDS011;9834;48.076;11.878;2023-08-20T06:27:07;4.93;;;3.93;;
19396;SDS011;9834;48.076;11.878;2023-08-20T06:29:40;8.65;;;2.92;;
19396;SDS011;9834;48.076;11.878;2023-08-20T06:32:12;6.85;;;2.83;;
19396;SDS011;9834;48.076;11.878;2023-08-20T06:34:46;6.78;;;4.05;;
19396;SDS011;9834;48.076;11.878;2023-08-20T06:37:16;3.35;;;3.05;;
19396;SDS011;9834;48.076;11.878;2023-08-20T06:39:48;3.13;;;2.53;;
19396;SDS011;9834;48.076;11.878;2023-08-20T06:42:20;3.10;;;2.90;;
19396;SDS011;9834;48.076;11.878;2023-08-20T06:44:53;3.83;;;2.90;;
19396;SDS011;9834;48.076;11.878;2023-08-20T06:47:23;3.38;;;2.95;;
19396;SDS011;9834;48.076;11.878;2023-08-20T06:49:54;6.38;;;3.53;;
19396;SDS011;9834;48.076;11.878;2023-08-20T06:52:21;4.00;;;2.88;;
19396;SDS011;9834;48.076;11.878;2023-08-20T06:54:48;4.07;;;3.00;;
19396;SDS011;9834;48.076;11.878;2023-08-20T06:57:15;2.55;;;2.35;;
19396;SDS011;9834;48.076;11.878;2023-08-20T06:59:51;4.88;;;2.97;;
19396;SDS011;9834;48.076;11.878;2023-08-20T07:02:33;2.70;;;2.45;;
19396;SDS011;9834;48.076;11.878;2023-08-20T07:05:01;3.38;;;3.17;;
19396;SDS011;9834;48.076;11.878;2023-08-20T07:07:36;6.40;;;3.75;;
19396;SDS011;9834;48.076;11.878;2023-08-20T07:10:09;4.45;;;2.72;;
19396;SDS011;9834;48.076;11.878;2023-08-20T07:12:42;5.80;;;3.53;;
19396;SDS011;9834;48.076;11.878;2023-08-20T07:15:15;4.28;;;3.05;;
19396;SDS011;9834;48.076;11.878;2023-08-20T07:17:49;2.03;;;1.92;;
19396;SDS011;9834;48.076;11.878;2023-08-20T07:20:16;4.35;;;2.72;;
19396;SDS011;9834;48.076;11.878;2023-08-20T07:22:48;7.00;;;2.90;;
19396;SDS011;9834;48.076;11.878;2023-08-20T07:25:17;3.05;;;2.45;;
19396;SDS011;9834;48.076;11.878;2023-08-20T07:27:49;4.20;;;3.00;;
19396;SDS011;9834;48.076;11.878;2023-08-20T07:30:17;4.72;;;2.30;;
19396;SDS011;9834;48.076;11.878;2023-08-20T07:32:49;2.95;;;2.40;;
19396;SDS011;9834;48.076;11.878;2023-08-20T07:35:19;7.18;;;3.20;;
19396;SDS011;9834;48.076;11.878;2023-08-20T07:37:47;3.28;;;3.08;;
19396;SDS011;9834;48.076;11.878;2023-08-20T07:40:14;3.35;;;2.25;;
19396;SDS011;9834;48.076;11.878;2023-08-20T07:42:45;5.03;;;3.25;;
19396;SDS011;9834;48.076;11.878;2023-08-20T07:45:20;3.10;;;2.80;;
19396;SDS011;9834;48.076;11.878;2023-08-20T07:48:06;7.70;;;3.03;;
19396;SDS011;9834;48.076;11.878;2023-08-20T07:50:39;2.80;;;2.42;;
19396;SDS011;9834;48.076;11.878;2023-08-20T07:53:06;3.08;;;2.42;;
19396;SDS011;9834;48.076;11.878;2023-08-20T07:55:42;3.17;;;2.80;;
19396;SDS011;9834;48.076;11.878;2023-08-20T07:58:12;7.75;;;2.63;;
19396;SDS011;9834;48.076;11.878;2023-08-20T08:00:41;4.25;;;2.47;;
19396;SDS011;9834;48.076;11.878;2023-08-20T08:03:09;5.15;;;3.17;;
19396;SDS011;9834;48.076;11.878;2023-08-20T08:05:38;6.43;;;2.53;;
19396;SDS011;9834;48.076;11.878;2023-08-20T08:08:07;3.33;;;3.03;;
19396;SDS011;9834;48.076;11.878;2023-08-20T08:10:34;4.00;;;3.25;;
19396;SDS011;9834;48.076;11.878;2023-08-20T08:13:08;3.25;;;2.95;;
19396;SDS011;9834;48.076;11.878;2023-08-20T08:15:38;6.40;;;2.72;;
19396;SDS011;9834;48.076;11.878;2023-08-20T08:18:06;3.97;;;2.50;;
19396;SDS011;9834;48.076;11.878;2023-08-20T08:20:34;2.95;;;2.70;;
19396;SDS011;9834;48.076;11.878;2023-08-20T08:23:01;3.30;;;3.00;;
19396;SDS011;9834;48.076;11.878;2023-08-20T08:25:28;2.70;;;2.50;;
19396;SDS011;9834;48.076;11.878;2023-08-20T08:27:55;3.58;;;2.42;;
19396;SDS011;9834;48.076;11.878;2023-08-20T08:30:22;3.55;;;2.83;;
19396;SDS011;9834;48.076;11.878;2023-08-20T08:32:52;2.92;;;2.65;;
19396;SDS011;9834;48.076;11.878;2023-08-20T08:35:27;3.60;;;2.53;;
19396;SDS011;9834;48.076;11.878;2023-08-20T08:37:54;10.50;;;3.15;;
19396;SDS011;9834;48.076;11.878;2023-08-20T08:40:22;3.28;;;2.97;;
19396;SDS011;9834;48.076;11.878;2023-08-20T08:42:56;3.20;;;2.75;;
19396;SDS011;9834;48.076;11.878;2023-08-20T08:45:23;4.05;;;3.65;;
19396;SDS011;9834;48.076;11.878;2023-08-20T08:47:55;4.82;;;3.25;;
19396;SDS011;9834;48.076;11.878;2023-08-20T08:50:36;3.03;;;2.78;;
19396;SDS011;9834;48.076;11.878;2023-08-20T08:53:06;3.63;;;3.13;;
19396;SDS011;9834;48.076;11.878;2023-08-20T08:55:34;3.83;;;2.55;;
19396;SDS011;9834;48.076;11.878;2023-08-20T08:58:02;9.27;;;2.83;;
19396;SDS011;9834;48.076;11.878;2023-08-20T09:00:29;3.45;;;3.15;;
19396;SDS011;9834;48.076;11.878;2023-08-20T09:02:57;5.13;;;2.70;;
19396;SDS011;9834;48.076;11.878;2023-08-20T09:05:24;4.20;;;2.63;;
19396;SDS011;9834;48.076;11.878;2023-08-20T09:07:56;8.02;;;2.50;;
19396;SDS011;9834;48.076;11.878;2023-08-20T09:10:26;7.25;;;2.70;;
19396;SDS011;9834;48.076;11.878;2023-08-20T09:12:54;5.80;;;3.00;;
19396;SDS011;9834;48.076;11.878;2023-08-20T09:15:32;3.20;;;2.58;;
19396;SDS011;9834;48.076;11.878;2023-08-20T09:18:04;3.75;;;2.63;;
19396;SDS011;9834;48.076;11.878;2023-08-20T09:20:38;4.18;;;2.72;;
19396;SDS011;9834;48.076;11.878;2023-08-20T09:23:11;2.92;;;2.50;;
19396;SDS011;9834;48.076;11.878;2023-08-20T09:25:46;4.97;;;2.80;;
19396;SDS011;9834;48.076;11.878;2023-08-20T09:28:16;2.70;;;2.50;;
19396;SDS011;9834;48.076;11.878;2023-08-20T09:30:55;5.72;;;2.83;;
19396;SDS011;9834;48.076;11.878;2023-08-20T09:33:23;5.63;;;3.00;;
19396;SDS011;9834;48.076;11.878;2023-08-20T09:35:55;6.20;;;2.83;;
19396;SDS011;9834;48.076;11.878;2023-08-20T09:38:29;5.35;;;2.70;;
19396;SDS011;9834;48.076;11.878;2023-08-20T09:41:03;3.00;;;2.80;;
19396;SDS011;9834;48.076;11.878;2023-08-20T09:43:40;4.85;;;2.92;;
19396;SDS011;9834;48.076;11.878;2023-08-20T09:46:10;2.35;;;2.20;;
19396;SDS011;9834;48.076;11.878;2023-08-20T09:48:39;2.13;;;2.03;;
19396;SDS011;9834;48.076;11.878;2023-08-20T09:51:11;3.80;;;2.95;;
19396;SDS011;9834;48.076;11.878;2023-08-20T09:53:53;2.92;;;2.67;;
19396;SDS011;9834;48.076;11.878;2023-08-20T09:56:30;2.72;;;2.53;;
19396;SDS011;9834;48.076;11.878;2023-08-20T09:59:02;7.60;;;3.35;;
19396;SDS011;9834;48.076;11.878;2023-08-20T10:01:39;2.65;;;2.45;;
19396;SDS011;9834;48.076;11.878;2023-08-20T10:04:07;3.63;;;2.80;;
19396;SDS011;9834;48.076;11.878;2023-08-20T10:06:36;2.47;;;2.17;;
19396;SDS011;9834;48.076;11.878;2023-08-20T10:09:13;3.30;;;2.97;;
19396;SDS011;9834;48.076;11.878;2023-08-20T10:11:40;6.00;;;2.60;;
19396;SDS011;9834;48.076;11.878;2023-08-20T10:14:10;3.63;;;2.70;;
19396;SDS011;9834;48.076;11.878;2023-08-20T10:16:39;2.40;;;2.20;;
19396;SDS011;9834;48.076;11.878;2023-08-20T10:19:06;2.47;;;1.95;;
19396;SDS011;9834;48.076;11.878;2023-08-20T10:21:33;4.60;;;2.47;;
19396;SDS011;9834;48.076;11.878;2023-08-20T10:24:18;3.80;;;2.40;;
19396;SDS011;9834;48.076;11.878;2023-08-20T10:26:46;2.28;;;2.17;;
19396;SDS011;9834;48.076;11.878;2023-08-20T10:32:10;4.80;;;2.58;;
19396;SDS011;9834;48.076;11.878;2023-08-20T10:34:38;10.40;;;2.42;;
19396;SDS011;9834;48.076;11.878;2023-08-20T10:37:11;2.60;;;1.80;;
19396;SDS011;9834;48.076;11.878;2023-08-20T10:39:43;2.90;;;2.28;;
19396;SDS011;9834;48.076;11.878;2023-08-20T10:42:28;2.13;;;1.95;;
19396;SDS011;9834;48.076;11.878;2023-08-20T10:44:58;2.30;;;2.03;;
19396;SDS011;9834;48.076;11.878;2023-08-20T10:47:37;3.20;;;1.95;;
19396;SDS011;9834;48.076;11.878;2023-08-20T10:50:08;5.38;;;2.50;;
19396;SDS011;9834;48.076;11.878;2023-08-20T10:52:47;2.60;;;2.40;;
19396;SDS011;9834;48.076;11.878;2023-08-20T10:55:17;2.05;;;1.88;;
19396;SDS011;9834;48.076;11.878;2023-08-20T10:57:54;4.68;;;2.05;;
19396;SDS011;9834;48.076;11.878;2023-08-20T11:00:22;1.88;;;1.75;;
19396;SDS011;9834;48.076;11.878;2023-08-20T11:02:55;2.10;;;2.00;;
19396;SDS011;9834;48.076;11.878;2023-08-20T11:05:28;2.92;;;2.63;;
19396;SDS011;9834;48.076;11.878;2023-08-20T11:07:58;4.65;;;2.83;;
19396;SDS011;9834;48.076;11.878;2023-08-20T11:10:29;2.25;;;2.05;;
19396;SDS011;9834;48.076;11.878;2023-08-20T11:12:57;8.40;;;2.22;;
19396;SDS011;9834;48.076;11.878;2023-08-20T11:15:28;2.22;;;2.00;;
19396;SDS011;9834;48.076;11.878;2023-08-20T11:18:04;7.00;;;2.13;;
19396;SDS011;9834;48.076;11.878;2023-08-20T11:20:34;3.60;;;2.72;;
19396;SDS011;9834;48.076;11.878;2023-08-20T11:23:05;2.35;;;1.98;;
19396;SDS011;9834;48.076;11.878;2023-08-20T11:25:41;2.45;;;2.25;;
19396;SDS011;9834;48.076;11.878;2023-08-20T11:28:09;2.85;;;2.45;;
19396;SDS011;9834;48.076;11.878;2023-08-20T11:30:36;2.28;;;2.08;;
19396;SDS011;9834;48.076;11.878;2023-08-20T11:33:05;2.58;;;2.38;;
19396;SDS011;9834;48.076;11.878;2023-08-20T11:35:33;2.22;;;1.88;;
19396;SDS011;9834;48.076;11.878;2023-08-20T11:38:02;3.05;;;2.78;;
19396;SDS011;9834;48.076;11.878;2023-08-20T11:40:32;3.50;;;3.20;;
19396;SDS011;9834;48.076;11.878;2023-08-20T11:43:04;4.25;;;2.33;;
19396;SDS011;9834;48.076;11.878;2023-08-20T11:48:31;3.17;;;2.67;;
19396;SDS011;9834;48.076;11.878;2023-08-20T11:51:02;1.83;;;1.73;;
19396;SDS011;9834;48.076;11.878;2023-08-20T11:53:30;2.80;;;2.60;;
19396;SDS011;9834;48.076;11.878;2023-08-20T11:55:59;3.08;;;2.03;;
19396;SDS011;9834;48.076;11.878;2023-08-20T11:58:34;3.33;;;2.15;;
19396;SDS011;9834;48.076;11.878;2023-08-20T12:01:09;2.15;;;2.03;;
19396;SDS011;9834;48.076;11.878;2023-08-20T12:03:37;2.78;;;2.58;;
19396;SDS011;9834;48.076;11.878;2023-08-20T12:06:16;2.95;;;2.75;;
19396;SDS011;9834;48.076;11.878;2023-08-20T12:08:47;3.13;;;2.83;;
19396;SDS011;9834;48.076;11.878;2023-08-20T12:11:14;3.80;;;2.60;;
19396;SDS011;9834;48.076;11.878;2023-08-20T12:13:50;2.50;;;2.30;;
19396;SDS011;9834;48.076;11.878;2023-08-20T12:16:21;2.25;;;2.15;;
19396;SDS011;9834;48.076;11.878;2023-08-20T12:18:52;2.83;;;2.53;;
19396;SDS011;9834;48.076;11.878;2023-08-20T12:21:19;2.45;;;2.25;;
19396;SDS011;9834;48.076;11.878;2023-08-20T12:23:58;5.40;;;2.28;;
19396;SDS011;9834;48.076;11.878;2023-08-20T12:26:29;2.13;;;2.03;;
19396;SDS011;9834;48.076;11.878;2023-08-20T12:29:00;3.92;;;2.95;;
19396;SDS011;9834;48.076;11.878;2023-08-20T12:31:27;2.72;;;2.42;;
19396;SDS011;9834;48.076;11.878;2023-08-20T12:33:57;2.30;;;2.15;;
19396;SDS011;9834;48.076;11.878;2023-08-20T12:36:26;2.15;;;1.98;;
19396;SDS011;9834;48.076;11.878;2023-08-20T12:38:53;2.58;;;2.38;;
19396;SDS011;9834;48.076;11.878;2023-08-20T12:41:25;2.95;;;2.63;;
19396;SDS011;9834;48.076;11.878;2023-08-20T12:43:52;2.25;;;2.15;;
19396;SDS011;9834;48.076;11.878;2023-08-20T12:46:34;4.00;;;2.33;;
19396;SDS011;9834;48.076;11.878;2023-08-20T12:49:09;1.90;;;1.80;;
19396;SDS011;9834;48.076;11.878;2023-08-20T12:51:36;2.08;;;1.92;;
19396;SDS011;9834;48.076;11.878;2023-08-20T12:54:03;2.67;;;2.47;;
19396;SDS011;9834;48.076;11.878;2023-08-20T12:56:33;2.33;;;2.20;;
19396;SDS011;9834;48.076;11.878;2023-08-20T12:59:04;2.17;;;2.08;;
19396;SDS011;9834;48.076;11.878;2023-08-20T13:01:34;2.63;;;2.42;;
19396;SDS011;9834;48.076;11.878;2023-08-20T13:04:04;2.97;;;2.78;;
19396;SDS011;9834;48.076;11.878;2023-08-20T13:06:37;2.22;;;2.03;;
19396;SDS011;9834;48.076;11.878;2023-08-20T13:09:09;2.33;;;2.20;;
19396;SDS011;9834;48.076;11.878;2023-08-20T13:11:37;2.38;;;2.17;;
19396;SDS011;9834;48.076;11.878;2023-08-20T13:14:10;1.95;;;1.85;;
19396;SDS011;9834;48.076;11.878;2023-08-20T13:16:42;7.72;;;2.30;;
19396;SDS011;9834;48.076;11.878;2023-08-20T13:19:10;2.38;;;2.17;;
19396;SDS011;9834;48.076;11.878;2023-08-20T13:21:37;2.50;;;2.33;;
19396;SDS011;9834;48.076;11.878;2023-08-20T13:24:09;2.15;;;1.98;;
19396;SDS011;9834;48.076;11.878;2023-08-20T13:26:39;2.50;;;2.10;;
19396;SDS011;9834;48.076;11.878;2023-08-20T13:29:06;2.30;;;2.15;;
19396;SDS011;9834;48.076;11.878;2023-08-20T13:31:35;2.38;;;2.25;;
19396;SDS011;9834;48.076;11.878;2023-08-20T13:34:04;2.78;;;2.58;;
19396;SDS011;9834;48.076;11.878;2023-08-20T13:36:36;2.25;;;2.15;;
19396;SDS011;9834;48.076;11.878;2023-08-20T13:39:06;3.65;;;1.98;;
19396;SDS011;9834;48.076;11.878;2023-08-20T13:41:33;2.10;;;2.00;;
19396;SDS011;9834;48.076;11.878;2023-08-20T13:44:02;3.65;;;2.47;;
19396;SDS011;9834;48.076;11.878;2023-08-20T13:46:32;2.22;;;2.13;;
19396;SDS011;9834;48.076;11.878;2023-08-20T13:49:02;2.45;;;2.25;;
19396;SDS011;9834;48.076;11.878;2023-08-20T13:51:32;2.38;;;2.17;;
19396;SDS011;9834;48.076;11.878;2023-08-20T13:54:02;2.17;;;2.08;;
19396;SDS011;9834;48.076;11.878;2023-08-20T13:56:32;2.00;;;1.90;;
19396;SDS011;9834;48.076;11.878;2023-08-20T13:59:02;2.22;;;2.05;;
19396;SDS011;9834;48.076;11.878;2023-08-20T14:01:36;5.63;;;2.60;;
19396;SDS011;9834;48.076;11.878;2023-08-20T14:04:11;5.18;;;2.80;;
19396;SDS011;9834;48.076;11.878;2023-08-20T14:06:47;4.18;;;2.50;;
19396;SDS011;9834;48.076;11.878;2023-08-20T14:09:19;1.75;;;1.65;;
19396;SDS011;9834;48.076;11.878;2023-08-20T14:11:50;4.22;;;1.75;;
19396;SDS011;9834;48.076;11.878;2023-08-20T14:14:17;2.63;;;2.42;;
19396;SDS011;9834;48.076;11.878;2023-08-20T14:16:47;2.65;;;2.53;;
19396;SDS011;9834;48.076;11.878;2023-08-20T14:19:16;3.53;;;2.72;;
19396;SDS011;9834;48.076;11.878;2023-08-20T14:21:43;2.50;;;2.40;;
19396;SDS011;9834;48.076;11.878;2023-08-20T14:24:10;2.45;;;2.33;;
19396;SDS011;9834;48.076;11.878;2023-08-20T14:26:39;2.50;;;2.35;;
19396;SDS011;9834;48.076;11.878;2023-08-20T14:29:13;2.30;;;2.10;;
19396;SDS011;9834;48.076;11.878;2023-08-20T14:31:52;2.55;;;2.38;;
19396;SDS011;9834;48.076;11.878;2023-08-20T14:34:25;2.72;;;2.53;;
19396;SDS011;9834;48.076;11.878;2023-08-20T14:36:55;2.25;;;2.13;;
19396;SDS011;9834;48.076;11.878;2023-08-20T14:39:25;2.15;;;2.05;;
19396;SDS011;9834;48.076;11.878;2023-08-20T14:41:52;2.10;;;2.00;;
19396;SDS011;9834;48.076;11.878;2023-08-20T14:44:19;3.08;;;2.20;;
19396;SDS011;9834;48.076;11.878;2023-08-20T14:46:46;1.75;;;1.65;;
19396;SDS011;9834;48.076;11.878;2023-08-20T14:49:15;2.45;;;2.28;;
19396;SDS011;9834;48.076;11.878;2023-08-20T14:51:45;2.22;;;2.13;;
19396;SDS011;9834;48.076;11.878;2023-08-20T14:54:15;2.58;;;2.38;;
19396;SDS011;9834;48.076;11.878;2023-08-20T14:56:45;3.03;;;2.83;;
19396;SDS011;9834;48.076;11.878;2023-08-20T14:59:13;2.28;;;2.17;;
19396;SDS011;9834;48.076;11.878;2023-08-20T15:01:43;3.20;;;2.65;;
19396;SDS011;9834;48.076;11.878;2023-08-20T15:04:12;2.10;;;2.00;;
19396;SDS011;9834;48.076;11.878;2023-08-20T15:06:39;2.40;;;2.30;;
19396;SDS011;9834;48.076;11.878;2023-08-20T15:09:16;2.70;;;2.50;;
19396;SDS011;9834;48.076;11.878;2023-08-20T15:11:45;2.00;;;1.90;;
19396;SDS011;9834;48.076;11.878;2023-08-20T15:14:14;2.55;;;2.38;;
19396;SDS011;9834;48.076;11.878;2023-08-20T15:16:45;2.22;;;2.05;;
19396;SDS011;9834;48.076;11.878;2023-08-20T15:19:12;2.40;;;2.15;;
19396;SDS011;9834;48.076;11.878;2023-08-20T15:21:53;2.88;;;2.67;;